createdAt,value
2023-03-16T00:02:06.462Z,77902.66
2023-03-16T00:04:37.860Z,77902.66
2023-03-16T00:07:09.784Z,77902.66
2023-03-16T00:09:41.440Z,77908.72
2023-03-16T00:12:16.345Z,77910.75
2023-03-16T00:14:48.619Z,77914.81
2023-03-16T00:17:19.607Z,77918.88
2023-03-16T00:19:49.025Z,77926.97
2023-03-16T00:22:16.562Z,77916.84
2023-03-16T00:24:43.892Z,77931.03
2023-03-16T00:27:16.332Z,77935.09
2023-03-16T00:29:48.662Z,77939.16
2023-03-16T00:32:21.195Z,77937.13
2023-03-16T00:34:48.781Z,77943.22
2023-03-16T00:37:18.285Z,77951.31
2023-03-16T00:39:46.863Z,77961.47
2023-03-16T00:42:16.629Z,77963.50
2023-03-16T00:44:44.825Z,77963.50
2023-03-16T00:47:15.718Z,77971.59
2023-03-16T00:49:44.231Z,77975.66
2023-03-16T00:52:16.373Z,77977.69
2023-03-16T00:54:45.249Z,77981.75
2023-03-16T00:57:16.502Z,77985.78
2023-03-16T00:59:43.520Z,77985.78
2023-03-16T01:02:12.503Z,77991.88
2023-03-16T01:04:41.731Z,77997.97
2023-03-16T01:07:12.267Z,77993.91
2023-03-16T01:09:43.045Z,78002.00
2023-03-16T01:12:17.319Z,78006.06
2023-03-16T01:14:46.094Z,78010.13
2023-03-16T01:17:14.640Z,78012.16
2023-03-16T01:19:43.491Z,78012.16
2023-03-16T01:22:11.673Z,78010.13
2023-03-16T01:24:40.025Z,78032.44
2023-03-16T01:27:08.400Z,78024.31
2023-03-16T01:29:36.641Z,78032.44
2023-03-16T01:32:05.051Z,78032.44
2023-03-16T01:34:33.707Z,78040.56
2023-03-16T01:37:01.462Z,78040.56
2023-03-16T01:39:48.767Z,78052.72
2023-03-16T01:42:16.254Z,78048.66
2023-03-16T01:44:52.968Z,78060.81
2023-03-16T01:47:20.587Z,78064.88
2023-03-16T01:49:48.416Z,78064.88
2023-03-16T01:52:21.482Z,78064.88
2023-03-16T01:54:52.993Z,78070.97
2023-03-16T01:57:22.241Z,78081.09
2023-03-16T02:00:18.677Z,78079.09
2023-03-16T02:03:13.980Z,78089.22
2023-03-16T02:06:14.661Z,78085.16
2023-03-16T02:08:49.348Z,78089.22
2023-03-16T02:11:22.774Z,78097.34
2023-03-16T02:14:11.903Z,78097.34
2023-03-16T02:16:40.957Z,78105.44
2023-03-16T02:19:12.792Z,78107.47
2023-03-16T02:21:58.768Z,78111.53
2023-03-16T02:24:26.588Z,78109.50
2023-03-16T02:26:57.624Z,78113.56
2023-03-16T02:29:50.011Z,78113.56
2023-03-16T02:32:18.143Z,78117.63
2023-03-16T02:34:45.446Z,78123.69
2023-03-16T02:37:13.642Z,78129.78
2023-03-16T02:39:44.210Z,78133.84
2023-03-16T02:42:18.232Z,78133.84
2023-03-16T02:44:53.257Z,78137.91
2023-03-16T02:47:45.714Z,78141.94
2023-03-16T02:50:13.836Z,78141.94
2023-03-16T02:52:41.922Z,78148.03
2023-03-16T02:55:10.272Z,78150.06
2023-03-16T02:57:37.458Z,78154.13
2023-03-16T03:00:19.159Z,78156.16
2023-03-16T03:02:52.614Z,78162.22
2023-03-16T03:05:21.357Z,78158.16
2023-03-16T03:07:48.368Z,78162.22
2023-03-16T03:10:16.025Z,78168.31
2023-03-16T03:12:42.921Z,78174.41
2023-03-16T03:15:10.793Z,78170.34
2023-03-16T03:17:54.192Z,78186.56
2023-03-16T03:20:22.276Z,78182.50
2023-03-16T03:22:50.357Z,78188.59
2023-03-16T03:25:19.322Z,78194.69
2023-03-16T03:27:47.930Z,78198.72
2023-03-16T03:30:21.223Z,78202.78
2023-03-16T03:32:48.863Z,78210.91
2023-03-16T03:35:18.520Z,78206.84
2023-03-16T03:37:45.903Z,78214.97
2023-03-16T03:40:16.667Z,78223.06
2023-03-16T03:42:47.505Z,78210.91
2023-03-16T03:45:15.902Z,78227.13
2023-03-16T03:47:43.825Z,78235.25
2023-03-16T03:50:15.784Z,78235.25
2023-03-16T03:53:01.727Z,78235.25
2023-03-16T03:55:32.907Z,78241.31
2023-03-16T03:58:01.013Z,78239.28
2023-03-16T04:00:29.754Z,78245.38
2023-03-16T04:02:56.969Z,78243.34
2023-03-16T04:05:32.517Z,78251.47
2023-03-16T04:07:59.725Z,78247.41
2023-03-16T04:10:29.201Z,78247.41
2023-03-16T04:12:57.840Z,78251.47
2023-03-16T04:15:26.253Z,78263.63
2023-03-16T04:18:03.818Z,78255.53
2023-03-16T04:20:31.425Z,78247.41
2023-03-16T04:22:58.907Z,78259.56
2023-03-16T04:25:27.934Z,78261.59
2023-03-16T04:27:55.219Z,78267.69
2023-03-16T04:30:25.916Z,78267.69
2023-03-16T04:32:59.905Z,78269.72
2023-03-16T04:35:27.608Z,78271.75
2023-03-16T04:37:58.101Z,78283.91
2023-03-16T04:40:33.342Z,78283.91
2023-03-16T04:43:07.680Z,78283.91
2023-03-16T04:45:36.397Z,78287.97
2023-03-16T04:48:03.500Z,78292.03
2023-03-16T04:50:31.201Z,78292.03
2023-03-16T04:52:58.158Z,78296.09
2023-03-16T04:55:26.193Z,78304.19
2023-03-16T04:57:53.455Z,78304.19
2023-03-16T05:00:23.541Z,78306.22
2023-03-16T05:03:14.277Z,78312.31
2023-03-16T05:05:42.627Z,78306.22
2023-03-16T05:08:12.265Z,78312.31
2023-03-16T05:10:42.803Z,78300.13
2023-03-16T05:13:10.131Z,78300.13
2023-03-16T05:15:38.272Z,78296.09
2023-03-16T05:18:16.102Z,78292.03
2023-03-16T05:20:43.315Z,78287.97
2023-03-16T05:23:11.837Z,78287.97
2023-03-16T05:25:48.106Z,78283.91
2023-03-16T05:28:17.464Z,78281.88
2023-03-16T05:30:51.844Z,78281.88
2023-03-16T05:33:23.722Z,78271.75
2023-03-16T05:35:58.227Z,78269.72
2023-03-16T05:38:27.593Z,78275.81
2023-03-16T05:40:55.502Z,78267.69
2023-03-16T05:43:35.021Z,78259.56
2023-03-16T05:46:03.791Z,78251.47
2023-03-16T05:48:31.553Z,78247.41
2023-03-16T05:51:00.419Z,78239.28
2023-03-16T05:53:29.784Z,78231.19
2023-03-16T05:56:04.955Z,78231.19
2023-03-16T05:58:34.862Z,78223.06
2023-03-16T06:01:08.054Z,78223.06
2023-03-16T06:03:36.881Z,78210.91
2023-03-16T06:06:05.853Z,78202.78
2023-03-16T06:08:41.085Z,78198.72
2023-03-16T06:11:12.372Z,78184.53
2023-03-16T06:13:41.072Z,78174.41
2023-03-16T06:16:11.457Z,78166.28
2023-03-16T06:18:39.673Z,78158.16
2023-03-16T06:21:07.351Z,78150.06
2023-03-16T06:23:35.169Z,78137.91
2023-03-16T06:26:05.315Z,78125.72
2023-03-16T06:28:35.002Z,78117.63
2023-03-16T06:31:02.580Z,78105.44
2023-03-16T06:33:33.877Z,78097.34
2023-03-16T06:36:01.936Z,78081.09
2023-03-16T06:38:42.140Z,78068.94
2023-03-16T06:41:15.934Z,78064.88
2023-03-16T06:43:45.791Z,78048.66
2023-03-16T06:46:13.258Z,78036.50
2023-03-16T06:48:41.941Z,78028.38
2023-03-16T06:51:10.121Z,78028.38
2023-03-16T06:53:37.511Z,78012.16
2023-03-16T06:56:05.518Z,78000.00
2023-03-16T06:58:37.154Z,77995.94
2023-03-16T07:01:05.689Z,77983.75
2023-03-16T07:03:32.694Z,77987.81
2023-03-16T07:06:09.086Z,77979.72
2023-03-16T07:08:36.389Z,77975.66
2023-03-16T07:11:05.300Z,77963.50
2023-03-16T07:13:32.530Z,77955.38
2023-03-16T07:16:00.037Z,77943.22
2023-03-16T07:18:28.218Z,77949.28
2023-03-16T07:20:55.749Z,77943.22
2023-03-16T07:23:26.551Z,77939.16
2023-03-16T07:25:59.573Z,77939.16
2023-03-16T07:28:28.068Z,77918.88
2023-03-16T07:31:03.941Z,77918.88
2023-03-16T07:33:37.560Z,77914.81
2023-03-16T07:36:10.794Z,77904.69
2023-03-16T07:38:43.511Z,77890.47
2023-03-16T07:41:12.950Z,77886.44
2023-03-16T07:43:41.211Z,77882.38
2023-03-16T07:46:14.020Z,77896.56
2023-03-16T07:48:45.124Z,77894.53
2023-03-16T07:51:13.994Z,77892.50
2023-03-16T07:53:42.743Z,77890.47
2023-03-16T07:56:21.630Z,77882.38
2023-03-16T07:58:52.603Z,77862.09
2023-03-16T08:01:20.064Z,77862.09
2023-03-16T08:03:48.899Z,77862.09
2023-03-16T08:06:16.847Z,77841.81
2023-03-16T08:08:44.331Z,77833.69
2023-03-16T08:11:24.404Z,77843.84
2023-03-16T08:13:57.754Z,77823.56
2023-03-16T08:16:32.508Z,77817.47
2023-03-16T08:19:01.306Z,77813.44
2023-03-16T08:21:28.601Z,77811.41
2023-03-16T08:23:55.807Z,77821.53
2023-03-16T08:26:24.819Z,77825.59
2023-03-16T08:28:56.169Z,77813.44
2023-03-16T08:31:25.723Z,77799.22
2023-03-16T08:34:14.136Z,77785.03
2023-03-16T08:36:45.026Z,77772.88
2023-03-16T08:39:15.301Z,77785.03
2023-03-16T08:41:48.216Z,77789.09
2023-03-16T08:44:38.567Z,77772.88
2023-03-16T08:47:06.214Z,77770.84
2023-03-16T08:49:35.625Z,77752.59
2023-03-16T08:52:11.141Z,77732.31
2023-03-16T08:54:39.055Z,77718.13
2023-03-16T08:57:06.583Z,77699.88
2023-03-16T08:59:33.731Z,77712.03
2023-03-16T09:02:01.003Z,77722.19
2023-03-16T09:04:30.978Z,77712.03
2023-03-16T09:07:08.465Z,77712.03
2023-03-16T09:09:37.458Z,77720.16
2023-03-16T09:12:06.172Z,77712.03
2023-03-16T09:14:33.440Z,77703.94
2023-03-16T09:17:00.811Z,77691.75
2023-03-16T09:19:30.680Z,77667.44
2023-03-16T09:22:02.410Z,77649.19
2023-03-16T09:24:29.575Z,77643.09
2023-03-16T09:26:57.500Z,77647.16
2023-03-16T09:29:24.973Z,77655.25
2023-03-16T09:31:52.511Z,77647.16
2023-03-16T09:34:19.942Z,77647.16
2023-03-16T09:36:47.331Z,77649.19
2023-03-16T09:39:14.582Z,77630.94
2023-03-16T09:41:59.145Z,77634.97
2023-03-16T09:44:50.910Z,77647.16
2023-03-16T09:47:29.869Z,77639.03
2023-03-16T09:50:00.052Z,77630.94
2023-03-16T09:53:02.462Z,77618.75
2023-03-16T09:55:36.230Z,77602.53
2023-03-16T09:58:12.295Z,77594.44
2023-03-16T10:00:48.782Z,77574.16
2023-03-16T10:03:39.130Z,77545.75
2023-03-16T10:06:11.641Z,77533.59
2023-03-16T10:08:43.318Z,77521.44
2023-03-16T10:11:46.154Z,77511.28
2023-03-16T10:14:30.521Z,77497.09
2023-03-16T10:17:14.472Z,77499.13
2023-03-16T10:20:01.373Z,77484.94
2023-03-16T10:22:35.072Z,77460.59
2023-03-16T10:25:19.041Z,77444.38
2023-03-16T10:27:48.411Z,77407.88
2023-03-16T10:30:19.593Z,77403.84
2023-03-16T10:32:47.431Z,77389.63
2023-03-16T10:35:45.772Z,77375.44
2023-03-16T10:38:33.027Z,77351.13
2023-03-16T10:41:00.881Z,77347.06
2023-03-16T10:43:30.141Z,77347.06
2023-03-16T10:46:03.852Z,77411.94
2023-03-16T10:48:35.047Z,77438.31
2023-03-16T10:51:08.630Z,77440.31
2023-03-16T10:53:39.145Z,77448.44
2023-03-16T10:56:20.321Z,77436.28
2023-03-16T10:58:47.606Z,77432.22
2023-03-16T11:01:32.051Z,77424.09
2023-03-16T11:03:59.906Z,77420.06
2023-03-16T11:06:32.712Z,77432.22
2023-03-16T11:09:22.957Z,77450.47
2023-03-16T11:11:51.277Z,77460.59
2023-03-16T11:14:22.442Z,77462.63
2023-03-16T11:17:12.386Z,77468.72
2023-03-16T11:19:49.655Z,77484.94
2023-03-16T11:22:21.543Z,77509.25
2023-03-16T11:24:54.201Z,77495.06
2023-03-16T11:27:43.596Z,77472.78
2023-03-16T11:30:13.781Z,77448.44
2023-03-16T11:32:48.876Z,77428.16
2023-03-16T11:35:23.723Z,77387.59
2023-03-16T11:38:19.339Z,77351.13
2023-03-16T11:40:52.655Z,77355.16
2023-03-16T11:43:38.605Z,77355.16
2023-03-16T11:46:20.763Z,77395.72
2023-03-16T11:49:00.285Z,77403.84
2023-03-16T11:51:33.564Z,77440.31
2023-03-16T11:54:07.856Z,77464.66
2023-03-16T11:56:43.862Z,77468.72
2023-03-16T11:59:51.997Z,77472.78
2023-03-16T12:02:42.177Z,77480.88
2023-03-16T12:05:24.906Z,77489.00
2023-03-16T12:07:55.489Z,77513.31
2023-03-16T12:10:29.549Z,77521.44
2023-03-16T12:13:30.615Z,77523.47
2023-03-16T12:16:15.441Z,77521.44
2023-03-16T12:18:48.021Z,77511.28
2023-03-16T12:21:25.653Z,77513.31
2023-03-16T12:23:59.969Z,77511.28
2023-03-16T12:26:32.592Z,77513.31
2023-03-16T12:29:09.443Z,77501.16
2023-03-16T12:31:58.957Z,77476.81
2023-03-16T12:34:36.867Z,77448.44
2023-03-16T12:37:18.387Z,77444.38
2023-03-16T12:40:09.255Z,77411.94
2023-03-16T12:42:49.345Z,77405.84
2023-03-16T12:45:46.593Z,77413.97
2023-03-16T12:48:25.462Z,77420.06
2023-03-16T12:50:56.859Z,77444.38
2023-03-16T12:53:51.976Z,77472.78
2023-03-16T12:56:27.977Z,77480.88
2023-03-16T12:58:58.319Z,77509.25
2023-03-16T13:01:31.535Z,77513.31
2023-03-16T13:04:21.317Z,77521.44
2023-03-16T13:06:52.790Z,77537.66
2023-03-16T13:09:24.540Z,77525.47
2023-03-16T13:11:51.690Z,77521.44
2023-03-16T13:14:41.037Z,77521.44
2023-03-16T13:17:17.095Z,77511.28
2023-03-16T13:19:58.961Z,77517.38
2023-03-16T13:22:28.048Z,77501.16
2023-03-16T13:25:15.519Z,77493.03
2023-03-16T13:27:52.408Z,77450.47
2023-03-16T13:30:30.851Z,77403.84
2023-03-16T13:33:21.921Z,77363.28
2023-03-16T13:35:51.647Z,77310.56
2023-03-16T13:38:22.759Z,77286.22
2023-03-16T13:40:53.334Z,77306.50
2023-03-16T13:43:24.464Z,77338.94
2023-03-16T13:45:52.662Z,77355.16
2023-03-16T13:48:20.158Z,77393.69
2023-03-16T13:50:58.714Z,77432.22
2023-03-16T13:53:29.525Z,77448.44
2023-03-16T13:56:00.088Z,77476.81
2023-03-16T13:58:33.663Z,77468.72
2023-03-16T14:01:05.560Z,77468.72
2023-03-16T14:03:36.374Z,77462.63
2023-03-16T14:06:22.974Z,77468.72
2023-03-16T14:08:54.091Z,77468.72
2023-03-16T14:11:21.729Z,77456.53
2023-03-16T14:13:55.061Z,77460.59
2023-03-16T14:16:25.732Z,77472.78
2023-03-16T14:19:01.066Z,77484.94
2023-03-16T14:21:31.828Z,77505.22
2023-03-16T14:24:02.383Z,77507.25
2023-03-16T14:26:43.986Z,77521.44
2023-03-16T14:29:26.524Z,77533.59
2023-03-16T14:31:54.833Z,77533.59
2023-03-16T14:34:39.736Z,77551.84
2023-03-16T14:37:13.891Z,77561.97
2023-03-16T14:39:41.790Z,77557.94
2023-03-16T14:42:15.341Z,77564.00
2023-03-16T14:44:42.875Z,77566.03
2023-03-16T14:47:28.813Z,77561.97
2023-03-16T14:50:00.741Z,77561.97
2023-03-16T14:52:34.206Z,77570.09
2023-03-16T14:55:03.657Z,77576.19
2023-03-16T14:57:31.316Z,77561.97
2023-03-16T14:59:58.406Z,77549.81
2023-03-16T15:02:29.842Z,77533.59
2023-03-16T15:05:01.458Z,77521.44
2023-03-16T15:07:36.124Z,77525.47
2023-03-16T15:10:20.268Z,77511.28
2023-03-16T15:12:54.179Z,77513.31
2023-03-16T15:15:24.004Z,77525.47
2023-03-16T15:17:52.552Z,77533.59
2023-03-16T15:20:34.844Z,77523.47
2023-03-16T15:23:04.895Z,77527.50
2023-03-16T15:25:38.684Z,77517.38
2023-03-16T15:28:11.908Z,77505.22
2023-03-16T15:30:39.296Z,77517.38
2023-03-16T15:33:07.655Z,77525.47
2023-03-16T15:35:36.996Z,77521.44
2023-03-16T15:38:11.680Z,77525.47
2023-03-16T15:40:41.463Z,77531.56
2023-03-16T15:43:13.316Z,77549.81
2023-03-16T15:45:41.327Z,77553.88
2023-03-16T15:48:10.917Z,77578.22
2023-03-16T15:50:39.831Z,77584.28
2023-03-16T15:53:29.525Z,77610.66
2023-03-16T15:56:03.072Z,77626.88
2023-03-16T15:58:32.709Z,77630.94
2023-03-16T16:01:01.220Z,77634.97
2023-03-16T16:03:31.554Z,77630.94
2023-03-16T16:05:58.714Z,77643.09
2023-03-16T16:08:25.981Z,77647.16
2023-03-16T16:10:53.683Z,77651.19
2023-03-16T16:13:26.698Z,77663.38
2023-03-16T16:15:59.548Z,77675.53
2023-03-16T16:18:35.037Z,77691.75
2023-03-16T16:21:07.415Z,77703.94
2023-03-16T16:23:37.142Z,77699.88
2023-03-16T16:26:11.247Z,77714.06
2023-03-16T16:28:39.306Z,77728.25
2023-03-16T16:31:13.270Z,77740.44
2023-03-16T16:33:40.879Z,77752.59
2023-03-16T16:36:17.762Z,77768.81
2023-03-16T16:38:45.910Z,77776.94
2023-03-16T16:41:36.441Z,77789.09
2023-03-16T16:44:08.400Z,77801.25
2023-03-16T16:46:41.136Z,77809.38
2023-03-16T16:49:18.068Z,77821.53
2023-03-16T16:51:45.378Z,77825.59
2023-03-16T16:54:19.748Z,77811.41
2023-03-16T16:56:47.770Z,77825.59
2023-03-16T16:59:24.537Z,77837.75
2023-03-16T17:01:54.187Z,77849.94
2023-03-16T17:04:24.938Z,77870.22
2023-03-16T17:06:55.861Z,77884.41
2023-03-16T17:09:25.552Z,77872.22
2023-03-16T17:11:56.206Z,77886.44
2023-03-16T17:14:24.118Z,77894.53
2023-03-16T17:16:52.087Z,77890.47
2023-03-16T17:19:23.531Z,77924.97
2023-03-16T17:21:51.642Z,77900.63
2023-03-16T17:24:19.018Z,77902.66
2023-03-16T17:26:49.412Z,77916.84
2023-03-16T17:29:23.120Z,77939.16
2023-03-16T17:31:52.144Z,77951.31
2023-03-16T17:34:23.588Z,77951.31
2023-03-16T17:36:51.376Z,77955.38
2023-03-16T17:39:39.650Z,77955.38
2023-03-16T17:42:18.682Z,77965.50
2023-03-16T17:44:48.804Z,77967.53
2023-03-16T17:47:19.622Z,77975.66
2023-03-16T17:49:48.955Z,77971.59
2023-03-16T17:52:25.379Z,77975.66
2023-03-16T17:54:54.203Z,77987.81
2023-03-16T17:57:27.517Z,77995.94
2023-03-16T17:59:55.829Z,78000.00
2023-03-16T18:02:50.136Z,78004.03
2023-03-16T18:05:22.396Z,78004.03
2023-03-16T18:07:50.668Z,78016.22
2023-03-16T18:10:21.065Z,78020.28
2023-03-16T18:12:54.812Z,78016.22
2023-03-16T18:15:24.769Z,78028.38
2023-03-16T18:17:52.771Z,78036.50
2023-03-16T18:20:23.991Z,78054.75
2023-03-16T18:22:51.419Z,78058.81
2023-03-16T18:25:33.332Z,78064.88
2023-03-16T18:28:01.703Z,78073.00
2023-03-16T18:30:30.367Z,78085.16
2023-03-16T18:32:59.952Z,78085.16
2023-03-16T18:35:27.944Z,78085.16
2023-03-16T18:37:55.738Z,78068.94
2023-03-16T18:40:24.745Z,78060.81
2023-03-16T18:42:54.412Z,78052.72
2023-03-16T18:45:22.294Z,78048.66
2023-03-16T18:47:52.614Z,78044.59
2023-03-16T18:50:27.865Z,78036.50
2023-03-16T18:52:56.712Z,78038.53
2023-03-16T18:55:25.920Z,78038.53
2023-03-16T18:57:56.549Z,78040.56
2023-03-16T19:00:29.909Z,78044.59
2023-03-16T19:03:03.325Z,78050.69
2023-03-16T19:05:35.783Z,78044.59
2023-03-16T19:08:06.540Z,78048.66
2023-03-16T19:10:38.858Z,78048.66
2023-03-16T19:13:17.409Z,78048.66
2023-03-16T19:15:45.755Z,78052.72
2023-03-16T19:18:13.067Z,78064.88
2023-03-16T19:20:42.741Z,78079.09
2023-03-16T19:23:24.199Z,78085.16
2023-03-16T19:25:53.300Z,78089.22
2023-03-16T19:28:28.232Z,78105.44
2023-03-16T19:30:57.357Z,78105.44
2023-03-16T19:33:28.101Z,78109.50
2023-03-16T19:35:57.154Z,78109.50
2023-03-16T19:38:25.777Z,78109.50
2023-03-16T19:41:00.893Z,78109.50
2023-03-16T19:43:29.381Z,78101.38
2023-03-16T19:45:57.126Z,78105.44
2023-03-16T19:48:34.032Z,78097.34
2023-03-16T19:51:01.989Z,78083.13
2023-03-16T19:53:29.451Z,78085.16
2023-03-16T19:55:57.499Z,78081.09
2023-03-16T19:58:33.618Z,78073.00
2023-03-16T20:01:02.296Z,78073.00
2023-03-16T20:03:33.373Z,78060.81
2023-03-16T20:06:01.058Z,78056.78
2023-03-16T20:08:29.552Z,78056.78
2023-03-16T20:11:04.671Z,78052.72
2023-03-16T20:13:32.398Z,78048.66
2023-03-16T20:16:00.838Z,78044.59
2023-03-16T20:18:29.503Z,78052.72
2023-03-16T20:20:57.345Z,78038.53
2023-03-16T20:23:30.638Z,78036.50
2023-03-16T20:26:02.828Z,78040.56
2023-03-16T20:28:36.606Z,78040.56
2023-03-16T20:31:08.461Z,78040.56
2023-03-16T20:33:36.464Z,78044.59
2023-03-16T20:36:03.914Z,78046.63
2023-03-16T20:38:31.357Z,78048.66
2023-03-16T20:40:58.873Z,78048.66
2023-03-16T20:43:28.769Z,78048.66
2023-03-16T20:45:59.115Z,78048.66
2023-03-16T20:48:27.692Z,78048.66
2023-03-16T20:50:57.231Z,78048.66
2023-03-16T20:53:24.359Z,78058.81
2023-03-16T20:55:52.705Z,78056.78
2023-03-16T20:58:25.027Z,78060.81
2023-03-16T21:00:57.783Z,78060.81
2023-03-16T21:03:28.461Z,78068.94
2023-03-16T21:05:59.697Z,78077.06
2023-03-16T21:08:27.941Z,78079.09
2023-03-16T21:10:57.464Z,78085.16
2023-03-16T21:13:33.487Z,78093.28
2023-03-16T21:16:04.221Z,78095.31
2023-03-16T21:18:31.796Z,78101.38
2023-03-16T21:20:59.241Z,78109.50
2023-03-16T21:23:26.451Z,78117.63
2023-03-16T21:26:01.517Z,78125.72
2023-03-16T21:28:32.880Z,78133.84
2023-03-16T21:31:02.878Z,78133.84
2023-03-16T21:33:33.986Z,78146.00
2023-03-16T21:36:02.723Z,78172.38
2023-03-16T21:38:31.386Z,78162.22
2023-03-16T21:40:59.782Z,78174.41
2023-03-16T21:43:27.530Z,78182.50
2023-03-16T21:45:57.394Z,78190.63
2023-03-16T21:48:30.097Z,78196.72
2023-03-16T21:50:59.658Z,78219.00
2023-03-16T21:53:31.076Z,78219.00
2023-03-16T21:55:59.126Z,78235.25
2023-03-16T21:58:27.296Z,78235.25
2023-03-16T22:00:55.941Z,78243.34
2023-03-16T22:03:49.757Z,78241.31
2023-03-16T22:06:18.923Z,78251.47
2023-03-16T22:08:46.503Z,78251.47
2023-03-16T22:11:20.151Z,78259.56
2023-03-16T22:13:48.033Z,78269.72
2023-03-16T22:16:18.930Z,78279.84
2023-03-16T22:18:48.760Z,78287.97
2023-03-16T22:21:35.437Z,78292.03
2023-03-16T22:24:05.546Z,78302.16
2023-03-16T22:26:33.570Z,78316.34
2023-03-16T22:29:01.971Z,78320.41
2023-03-16T22:31:35.792Z,78314.34
2023-03-16T22:34:03.970Z,78314.34
2023-03-16T22:36:33.229Z,78320.41
2023-03-16T22:39:03.833Z,78316.34
2023-03-16T22:41:32.041Z,78318.38
2023-03-16T22:43:59.657Z,78332.59
2023-03-16T22:46:28.868Z,78332.59
2023-03-16T22:48:56.981Z,78336.66
2023-03-16T22:51:30.006Z,78336.66
2023-03-16T22:54:08.356Z,78340.69
2023-03-16T22:56:36.116Z,78340.69
2023-03-16T22:59:06.117Z,78348.81
2023-03-16T23:01:37.737Z,78363.00
2023-03-16T23:04:15.727Z,78365.03
2023-03-16T23:06:43.685Z,78373.16
2023-03-16T23:09:13.911Z,78373.16
2023-03-16T23:11:43.782Z,78381.25
2023-03-16T23:14:16.958Z,78387.34
2023-03-16T23:16:45.023Z,78397.50
2023-03-16T23:19:34.089Z,78401.53
2023-03-16T23:22:05.077Z,78405.59
2023-03-16T23:24:33.995Z,78405.59
2023-03-16T23:27:02.213Z,78413.72
2023-03-16T23:29:30.070Z,78419.78
2023-03-16T23:31:57.759Z,78421.81
2023-03-16T23:34:26.433Z,78434.00
2023-03-16T23:36:53.892Z,78434.00
2023-03-16T23:39:21.117Z,78444.13
2023-03-16T23:41:50.816Z,78450.22
2023-03-16T23:44:22.974Z,78454.28
2023-03-16T23:46:51.614Z,78450.22
2023-03-16T23:49:25.359Z,78458.34
2023-03-16T23:51:55.806Z,78454.28
2023-03-16T23:54:26.688Z,78456.31
2023-03-16T23:56:54.690Z,78458.34
2023-03-16T23:59:23.416Z,78462.38
